Ana Sayfa
METAR-TAF:

METAR-TAF

Havaalanları :

Mason Jewett Field

Mason, Michigan, Amerika Birleşik Devletleri

Enlem: 42-33-57N, Boylam: 084-25-24W, yükseklik: 280 m

Güncel hava durumu gözlemi

Rapor saat 14:37 UTC de 26 dakika önce yapıldı.
Rüzgar kuzeydoğudan 7 kt ve 15 kt'a kadar ani rüzgarlar
Sıcaklık 25°C
Nem 89%
Basınç 1014 hPa
Görüş mesafesi: 11.3 km
1000 ft yükseklikte çok bulutlu

METAR: KTEW 171437Z AUTO 04007G15KT 7SM OVC010 25/23 A2993 RMK AO2 T02450226

Saat: 11:03 (15:03 UTC)


TAF: eksik

4.000'den fazla havaalanı için hava durumu gözlemleri ve tahminleri (METAR ve TAF raporları).

Kullanılabilir istasyonlar harita üzerinde sarı ve kırmızı noktalarla gösterilir.

İstasyonun adını görmek için fareyi noktanın üzerinde gezdirin.

Sonrasında hava gözlem ve tahminlerini görmek için tıklayın.

Haritayı değiştirmek için: yaklaştırmak için siyah artı işaretli yeşil düğmeye ve uzaklaştırmak için de eksi işaretli düğmeye hızla tıklayın; bitişik haritalar için yeşil okları kullanın.


METAR-TAF: